createdAt,value
2018-02-16T00:02:23.107Z,61.57
2018-02-16T00:04:51.468Z,49.17
2018-02-16T00:07:19.860Z,55.30
2018-02-16T00:09:48.230Z,53.47
2018-02-16T00:12:15.874Z,53.03
2018-02-16T00:14:44.390Z,52.10
2018-02-16T00:17:12.522Z,50.93
2018-02-16T00:19:41.030Z,59.60
2018-02-16T00:22:09.414Z,59.37
2018-02-16T00:24:37.035Z,43.60
2018-02-16T00:27:05.560Z,56.63
2018-02-16T00:29:33.918Z,49.67
2018-02-16T00:32:01.495Z,52.20
2018-02-16T00:34:29.923Z,54.13
2018-02-16T00:36:58.389Z,45.13
2018-02-16T00:39:27.002Z,60.20
2018-02-16T00:41:55.348Z,50.23
2018-02-16T00:44:23.754Z,57.63
2018-02-16T00:46:51.334Z,52.57
2018-02-16T00:49:18.920Z,47.90
2018-02-16T00:51:47.274Z,50.57
2018-02-16T00:54:15.637Z,48.23
2018-02-16T00:56:44.117Z,50.73
2018-02-16T00:59:12.640Z,50.17
2018-02-16T01:01:40.998Z,47.20
2018-02-16T01:04:08.620Z,45.47
2018-02-16T01:06:37.138Z,51.73
2018-02-16T01:09:04.761Z,47.70
2018-02-16T01:11:33.181Z,46.77
2018-02-16T01:14:01.526Z,43.17
2018-02-16T01:16:29.103Z,46.33
2018-02-16T01:18:56.677Z,42.73
2018-02-16T01:21:24.287Z,40.97
2018-02-16T01:23:51.938Z,53.20
2018-02-16T01:26:20.270Z,54.97
2018-02-16T01:28:47.846Z,49.10
2018-02-16T01:31:16.399Z,45.47
2018-02-16T01:33:43.980Z,49.80
2018-02-16T01:36:12.392Z,42.63
2018-02-16T01:38:40.005Z,45.10
2018-02-16T01:41:07.589Z,47.70
2018-02-16T01:43:35.207Z,50.03
2018-02-16T01:46:03.621Z,49.93
2018-02-16T01:48:31.243Z,51.10
2018-02-16T01:50:58.818Z,53.10
2018-02-16T01:53:27.311Z,49.80
2018-02-16T01:55:55.703Z,47.53
2018-02-16T01:58:24.076Z,54.17
2018-02-16T02:00:51.654Z,54.60
2018-02-16T02:03:19.967Z,47.03
2018-02-16T02:05:48.338Z,50.27
2018-02-16T02:08:15.916Z,47.10
2018-02-16T02:10:44.328Z,68.53
2018-02-16T02:13:11.907Z,52.13
2018-02-16T02:15:40.226Z,59.83
2018-02-16T02:18:07.806Z,51.87
2018-02-16T02:20:36.336Z,57.90
2018-02-16T02:23:04.719Z,58.60
2018-02-16T02:25:32.294Z,63.00
2018-02-16T02:27:59.914Z,65.63
2018-02-16T02:30:27.499Z,55.10
2018-02-16T02:32:55.083Z,61.83
2018-02-16T02:35:22.697Z,57.67
2018-02-16T02:37:50.277Z,72.43
2018-02-16T02:40:17.855Z,63.03
2018-02-16T02:42:45.454Z,67.70
2018-02-16T02:45:13.778Z,59.23
2018-02-16T02:47:41.356Z,66.83
2018-02-16T02:50:08.935Z,62.57
2018-02-16T02:52:36.551Z,63.40
2018-02-16T02:55:04.133Z,64.33
2018-02-16T02:57:31.715Z,56.77
2018-02-16T02:59:59.295Z,58.47
2018-02-16T03:02:26.959Z,67.60
2018-02-16T03:04:54.542Z,65.77
2018-02-16T03:07:22.119Z,61.10
2018-02-16T03:09:49.698Z,64.23
2018-02-16T03:12:17.274Z,61.13
2018-02-16T03:14:45.778Z,59.93
2018-02-16T03:17:14.174Z,59.80
2018-02-16T03:19:41.754Z,66.93
2018-02-16T03:22:10.235Z,70.83
2018-02-16T03:24:38.791Z,72.93
2018-02-16T03:27:06.372Z,85.17
2018-02-16T03:29:33.950Z,64.47
2018-02-16T03:32:02.290Z,64.27
2018-02-16T03:34:30.665Z,59.93
2018-02-16T03:36:58.288Z,65.23
2018-02-16T03:39:25.862Z,63.37
2018-02-16T03:41:54.338Z,64.27
2018-02-16T03:44:22.609Z,61.73
2018-02-16T03:46:50.191Z,65.50
2018-02-16T03:49:18.545Z,71.77
2018-02-16T03:51:46.906Z,69.30
2018-02-16T03:54:14.518Z,69.40
2018-02-16T03:56:42.951Z,53.37
2018-02-16T03:59:10.528Z,65.47
2018-02-16T04:01:38.139Z,63.00
2018-02-16T04:04:06.654Z,64.03
2018-02-16T04:06:34.298Z,62.63
2018-02-16T04:09:01.911Z,80.57
2018-02-16T04:11:29.486Z,71.87
2018-02-16T04:13:57.060Z,67.80
2018-02-16T04:16:25.339Z,68.83
2018-02-16T04:18:53.743Z,78.80
2018-02-16T04:21:22.018Z,68.43
2018-02-16T04:23:50.419Z,61.90
2018-02-16T04:26:18.707Z,72.57
2018-02-16T04:28:47.150Z,81.17
2018-02-16T04:31:14.730Z,71.80
2018-02-16T04:33:42.346Z,83.60
2018-02-16T04:36:09.925Z,92.90
2018-02-16T04:38:37.506Z,80.87
2018-02-16T04:41:05.803Z,75.93
2018-02-16T04:43:34.174Z,74.00
2018-02-16T04:46:01.804Z,70.67
2018-02-16T04:48:30.158Z,77.70
2018-02-16T04:50:57.800Z,70.47
2018-02-16T04:53:26.327Z,82.27
2018-02-16T04:55:54.760Z,84.47
2018-02-16T04:58:22.338Z,86.23
2018-02-16T05:00:50.749Z,79.63
2018-02-16T05:03:19.241Z,72.27
2018-02-16T05:05:47.610Z,83.40
2018-02-16T05:08:15.971Z,92.97
2018-02-16T05:10:44.339Z,80.78
2018-02-16T05:13:12.042Z,86.33
2018-02-16T05:15:40.699Z,89.93
2018-02-16T05:18:08.309Z,81.07
2018-02-16T05:20:35.886Z,70.37
2018-02-16T05:23:03.499Z,88.00
2018-02-16T05:25:31.078Z,82.00
2018-02-16T05:27:59.502Z,85.67
2018-02-16T05:30:27.878Z,89.17
2018-02-16T05:32:55.496Z,75.77
2018-02-16T05:35:23.153Z,79.37
2018-02-16T05:37:50.768Z,88.10
2018-02-16T05:40:19.195Z,85.23
2018-02-16T05:42:47.610Z,88.53
2018-02-16T05:45:16.194Z,99.93
2018-02-16T05:47:43.819Z,95.93
2018-02-16T05:50:11.458Z,85.87
2018-02-16T05:52:39.040Z,94.13
2018-02-16T05:55:06.620Z,93.03
2018-02-16T05:57:34.204Z,76.73
2018-02-16T06:00:02.489Z,92.83
2018-02-16T06:02:30.070Z,84.27
2018-02-16T06:04:57.730Z,78.30
2018-02-16T06:07:25.307Z,72.30
2018-02-16T06:09:52.994Z,90.07
2018-02-16T06:12:21.515Z,88.00
2018-02-16T06:14:49.939Z,89.40
2018-02-16T06:17:17.523Z,109.17
2018-02-16T06:19:45.098Z,95.67
2018-02-16T06:22:12.723Z,103.40
2018-02-16T06:24:40.308Z,98.97
2018-02-16T06:27:07.915Z,96.83
2018-02-16T06:29:35.489Z,94.93
2018-02-16T06:32:03.074Z,122.23
2018-02-16T06:34:30.687Z,93.47
2018-02-16T06:36:58.274Z,106.10
2018-02-16T06:39:25.959Z,95.73
2018-02-16T06:41:53.541Z,98.23
2018-02-16T06:44:21.158Z,205.07
2018-02-16T06:46:48.736Z,110.03
2018-02-16T06:49:16.355Z,116.53
2018-02-16T06:51:44.177Z,94.62
2018-02-16T06:54:11.801Z,117.37
2018-02-16T06:56:39.383Z,109.47
2018-02-16T06:59:06.967Z,96.97
2018-02-16T07:01:34.590Z,119.43
2018-02-16T07:04:02.170Z,122.30
2018-02-16T07:06:29.791Z,86.70
2018-02-16T07:08:57.533Z,96.20
2018-02-16T07:11:26.043Z,93.67
2018-02-16T07:13:54.234Z,96.80
2018-02-16T07:16:21.851Z,86.93
2018-02-16T07:18:49.428Z,89.03
2018-02-16T07:21:17.028Z,91.73
2018-02-16T07:23:44.652Z,88.67
2018-02-16T07:26:12.279Z,85.33
2018-02-16T07:28:39.919Z,100.10
2018-02-16T07:31:07.499Z,89.37
2018-02-16T07:33:35.619Z,85.10
2018-02-16T07:36:03.245Z,84.57
2018-02-16T07:38:31.416Z,91.57
2018-02-16T07:40:59.154Z,79.17
2018-02-16T07:43:28.969Z,73.00
2018-02-16T07:45:57.724Z,76.77
2018-02-16T07:48:25.982Z,67.20
2018-02-16T07:50:55.297Z,85.23
2018-02-16T07:53:22.974Z,77.10
2018-02-16T07:55:50.556Z,69.30
2018-02-16T07:58:18.208Z,65.07
2018-02-16T08:00:45.859Z,68.47
2018-02-16T08:03:13.535Z,61.60
2018-02-16T08:05:41.155Z,60.47
2018-02-16T08:08:09.579Z,57.93
2018-02-16T08:10:37.930Z,48.20
2018-02-16T08:13:05.630Z,51.73
2018-02-16T08:15:34.661Z,56.97
2018-02-16T08:18:03.508Z,49.03
2018-02-16T08:20:31.870Z,48.70
2018-02-16T08:23:00.025Z,51.30
2018-02-16T08:25:28.079Z,47.23
2018-02-16T08:27:56.271Z,40.70
2018-02-16T08:30:23.942Z,47.47
2018-02-16T08:32:52.329Z,52.97
2018-02-16T08:35:19.912Z,49.13
2018-02-16T08:37:47.488Z,37.30
2018-02-16T08:40:16.032Z,44.73
2018-02-16T08:42:43.616Z,46.10
2018-02-16T08:45:11.238Z,35.37
2018-02-16T08:47:39.715Z,39.37
2018-02-16T08:50:07.298Z,28.60
2018-02-16T08:52:34.883Z,36.90
2018-02-16T08:55:02.520Z,33.93
2018-02-16T08:57:30.911Z,35.83
2018-02-16T08:59:59.365Z,35.20
2018-02-16T09:02:27.722Z,30.57
2018-02-16T09:04:55.352Z,34.33
2018-02-16T09:07:22.932Z,35.60
2018-02-16T09:09:50.510Z,35.00
2018-02-16T09:12:18.157Z,33.33
2018-02-16T09:14:45.775Z,31.00
2018-02-16T09:17:13.394Z,28.13
2018-02-16T09:19:41.890Z,30.50
2018-02-16T09:22:09.510Z,34.23
2018-02-16T09:24:37.100Z,31.10
2018-02-16T09:27:05.586Z,28.57
2018-02-16T09:29:33.233Z,23.00
2018-02-16T09:32:00.816Z,24.70
2018-02-16T09:34:29.398Z,23.77
2018-02-16T09:36:57.663Z,36.40
2018-02-16T09:39:26.608Z,25.63
2018-02-16T09:41:54.191Z,28.47
2018-02-16T09:44:21.782Z,21.23
2018-02-16T09:46:49.369Z,24.37
2018-02-16T09:49:16.959Z,24.67
2018-02-16T09:51:44.536Z,19.73
2018-02-16T09:54:12.111Z,17.20
2018-02-16T09:56:39.683Z,20.97
2018-02-16T09:59:07.256Z,22.20
2018-02-16T10:01:34.835Z,18.90
2018-02-16T10:04:02.412Z,20.57
2018-02-16T10:06:30.022Z,23.00
2018-02-16T10:08:57.600Z,24.53
2018-02-16T10:11:25.174Z,16.23
2018-02-16T10:13:53.372Z,14.53
2018-02-16T10:16:21.030Z,18.90
2018-02-16T10:18:48.594Z,18.47
2018-02-16T10:21:16.210Z,20.43
2018-02-16T10:23:43.866Z,16.33
2018-02-16T10:26:11.474Z,15.07
2018-02-16T10:28:39.138Z,15.13
2018-02-16T10:31:06.710Z,19.40
2018-02-16T10:33:34.326Z,13.50
2018-02-16T10:36:01.972Z,14.30
2018-02-16T10:38:30.491Z,18.63
2018-02-16T10:40:58.071Z,18.07
2018-02-16T10:43:25.692Z,18.57
2018-02-16T10:45:53.266Z,15.63
2018-02-16T10:48:20.846Z,22.17
2018-02-16T10:50:48.436Z,11.07
2018-02-16T10:53:16.007Z,16.73
2018-02-16T10:55:43.609Z,18.37
2018-02-16T10:58:11.202Z,13.37
2018-02-16T11:00:44.502Z,15.23
2018-02-16T11:03:17.786Z,14.00
2018-02-16T11:05:53.846Z,13.60
2018-02-16T11:08:27.243Z,15.10
2018-02-16T11:10:54.878Z,10.60
2018-02-16T11:13:22.454Z,14.43
2018-02-16T11:15:50.030Z,14.60
2018-02-16T11:18:17.664Z,19.00
2018-02-16T11:20:45.306Z,16.10
2018-02-16T11:23:12.882Z,21.00
2018-02-16T11:25:40.466Z,23.33
2018-02-16T11:28:08.937Z,22.23
2018-02-16T11:30:37.401Z,20.83
2018-02-16T11:33:04.981Z,20.10
2018-02-16T11:35:32.557Z,16.37
2018-02-16T11:38:00.144Z,23.30
2018-02-16T11:40:27.716Z,21.53
2018-02-16T11:42:55.296Z,20.67
2018-02-16T11:45:23.664Z,17.90
2018-02-16T11:47:51.238Z,17.43
2018-02-16T11:50:18.812Z,21.53
2018-02-16T11:52:46.493Z,25.37
2018-02-16T11:55:14.135Z,28.43
2018-02-16T11:57:41.708Z,20.67
2018-02-16T12:00:09.314Z,23.07
2018-02-16T12:02:36.890Z,30.27
2018-02-16T12:05:04.488Z,25.93
2018-02-16T12:07:32.062Z,20.17
2018-02-16T12:09:59.640Z,20.50
2018-02-16T12:12:27.218Z,23.37
2018-02-16T12:14:54.800Z,28.33
2018-02-16T12:17:22.381Z,19.67
2018-02-16T12:19:49.961Z,29.10
2018-02-16T12:22:17.598Z,27.03
2018-02-16T12:24:46.119Z,22.77
2018-02-16T12:27:13.691Z,22.23
2018-02-16T12:29:41.266Z,20.87
2018-02-16T12:32:08.847Z,22.73
2018-02-16T12:34:36.425Z,23.07
2018-02-16T12:37:04.031Z,27.50
2018-02-16T12:39:31.616Z,19.90
2018-02-16T12:41:59.204Z,21.10
2018-02-16T12:44:26.823Z,24.27
2018-02-16T12:46:54.403Z,27.90
2018-02-16T12:49:21.978Z,20.83
2018-02-16T12:51:49.558Z,15.63
2018-02-16T12:54:17.135Z,20.00
2018-02-16T12:56:44.710Z,22.70
2018-02-16T12:59:12.318Z,26.03
2018-02-16T13:01:39.898Z,23.90
2018-02-16T13:04:07.473Z,18.30
2018-02-16T13:06:35.999Z,24.50
2018-02-16T13:09:03.618Z,21.23
2018-02-16T13:11:31.194Z,24.27
2018-02-16T13:13:58.774Z,25.83
2018-02-16T13:16:26.355Z,22.53
2018-02-16T13:18:53.926Z,21.00
2018-02-16T13:21:21.544Z,17.17
2018-02-16T13:23:49.119Z,14.93
2018-02-16T13:26:16.723Z,21.43
2018-02-16T13:28:45.097Z,19.13
2018-02-16T13:31:12.723Z,21.10
2018-02-16T13:33:40.295Z,19.03
2018-02-16T13:36:07.883Z,21.27
2018-02-16T13:38:35.456Z,19.90
2018-02-16T13:41:03.031Z,22.03
2018-02-16T13:43:30.602Z,17.53
2018-02-16T13:45:58.179Z,16.90
2018-02-16T13:48:25.806Z,19.33
2018-02-16T13:50:53.381Z,18.90
2018-02-16T13:53:20.975Z,21.30
2018-02-16T13:55:48.562Z,16.73
2018-02-16T13:58:17.050Z,23.40
2018-02-16T14:00:44.630Z,17.73
2018-02-16T14:03:12.211Z,15.93
2018-02-16T14:05:39.786Z,18.10
2018-02-16T14:08:07.359Z,22.93
2018-02-16T14:10:34.975Z,24.40
2018-02-16T14:13:02.551Z,25.03
2018-02-16T14:15:30.127Z,16.87
2018-02-16T14:17:57.700Z,24.37
2018-02-16T14:20:25.273Z,19.13
2018-02-16T14:22:52.846Z,14.70
2018-02-16T14:25:20.419Z,22.80
2018-02-16T14:27:47.995Z,23.00
2018-02-16T14:30:15.587Z,16.03
2018-02-16T14:32:43.162Z,21.60
2018-02-16T14:35:10.730Z,16.63
2018-02-16T14:37:39.202Z,20.17
2018-02-16T14:40:06.830Z,28.23
2018-02-16T14:42:35.318Z,14.23
2018-02-16T14:45:03.549Z,14.03
2018-02-16T14:47:31.130Z,10.60
2018-02-16T14:49:59.403Z,13.40
2018-02-16T14:52:26.983Z,16.73
2018-02-16T14:54:54.630Z,14.47
2018-02-16T14:57:22.264Z,20.43
2018-02-16T14:59:49.846Z,12.07
2018-02-16T15:02:17.421Z,12.97
2018-02-16T15:04:45.002Z,16.80
2018-02-16T15:07:13.415Z,14.33
2018-02-16T15:09:41.779Z,14.47
2018-02-16T15:12:10.240Z,14.40
2018-02-16T15:14:37.814Z,11.33
2018-02-16T15:17:06.187Z,17.37
2018-02-16T15:19:34.643Z,20.27
2018-02-16T15:22:03.023Z,9.60
2018-02-16T15:24:31.421Z,11.67
2018-02-16T15:26:59.938Z,16.93
2018-02-16T15:29:27.509Z,15.70
2018-02-16T15:31:55.131Z,14.60
2018-02-16T15:34:23.652Z,12.07
2018-02-16T15:36:51.250Z,14.63
2018-02-16T15:39:19.639Z,15.97
2018-02-16T15:41:47.219Z,17.13
2018-02-16T15:44:15.719Z,13.23
2018-02-16T15:46:43.295Z,18.53
2018-02-16T15:49:10.884Z,16.27
2018-02-16T15:51:39.483Z,16.30
2018-02-16T15:54:07.095Z,13.60
2018-02-16T15:56:34.674Z,24.47
2018-02-16T15:59:02.287Z,13.90
2018-02-16T16:01:29.864Z,10.60
2018-02-16T16:03:57.452Z,12.40
2018-02-16T16:06:29.524Z,18.27
2018-02-16T16:11:46.103Z,21.30
2018-02-16T16:14:13.650Z,18.90
2018-02-16T16:16:42.064Z,12.80
2018-02-16T16:19:09.615Z,17.00
2018-02-16T16:21:37.162Z,12.00
2018-02-16T16:24:04.710Z,20.27
2018-02-16T16:26:33.098Z,13.90
2018-02-16T16:29:00.686Z,16.23
2018-02-16T16:31:28.266Z,11.40
2018-02-16T16:33:55.856Z,15.57
2018-02-16T16:36:24.302Z,15.60
2018-02-16T16:38:51.894Z,21.27
2018-02-16T16:41:20.344Z,15.17
2018-02-16T16:43:47.935Z,28.00
2018-02-16T16:46:16.375Z,21.07
2018-02-16T16:48:44.907Z,14.80
2018-02-16T16:51:12.604Z,18.27
2018-02-16T16:53:40.193Z,16.50
2018-02-16T16:56:07.738Z,12.17
2018-02-16T16:58:35.278Z,19.83
2018-02-16T17:01:03.567Z,14.70
2018-02-16T17:03:31.847Z,25.60
2018-02-16T17:06:00.238Z,17.90
2018-02-16T17:08:28.554Z,19.53
2018-02-16T17:10:56.936Z,14.53
2018-02-16T17:13:25.266Z,24.67
2018-02-16T17:15:53.187Z,17.83
2018-02-16T17:18:21.522Z,16.90
2018-02-16T17:20:50.034Z,18.07
2018-02-16T17:23:18.290Z,23.57
2018-02-16T17:25:46.630Z,16.73
2018-02-16T17:28:14.177Z,17.97
2018-02-16T17:30:41.724Z,18.43
2018-02-16T17:33:09.286Z,26.67
2018-02-16T17:35:36.863Z,20.10
2018-02-16T17:38:05.318Z,27.97
2018-02-16T17:40:32.869Z,25.60
2018-02-16T17:43:00.418Z,32.83
2018-02-16T17:45:27.967Z,25.17
2018-02-16T17:47:55.721Z,22.73
2018-02-16T17:50:24.187Z,27.13
2018-02-16T17:52:51.743Z,24.63
2018-02-16T17:55:19.292Z,22.63
2018-02-16T17:57:47.838Z,19.50
2018-02-16T18:00:17.807Z,23.10
2018-02-16T18:02:45.425Z,34.03
2018-02-16T18:05:12.973Z,31.03
2018-02-16T18:07:40.562Z,29.30
2018-02-16T18:10:08.114Z,26.13
2018-02-16T18:12:35.685Z,47.27
2018-02-16T18:15:03.231Z,26.57
2018-02-16T18:17:30.883Z,41.70
2018-02-16T18:19:59.051Z,28.33
2018-02-16T18:22:26.599Z,31.03
2018-02-16T18:24:54.142Z,36.10
2018-02-16T18:27:21.698Z,29.83
2018-02-16T18:29:49.254Z,38.70
2018-02-16T18:32:16.843Z,26.73
2018-02-16T18:34:44.422Z,22.37
2018-02-16T18:37:11.987Z,25.27
2018-02-16T18:39:39.541Z,24.97
2018-02-16T18:42:07.094Z,28.03
2018-02-16T18:44:35.464Z,21.47
2018-02-16T18:47:03.006Z,23.30
2018-02-16T18:49:30.550Z,26.13
2018-02-16T18:51:58.140Z,22.13
2018-02-16T18:54:25.678Z,21.73
2018-02-16T18:56:54.039Z,20.50
2018-02-16T18:59:22.310Z,23.87
2018-02-16T19:01:50.666Z,28.67
2018-02-16T19:04:18.998Z,27.37
2018-02-16T19:06:47.138Z,20.17
2018-02-16T19:09:14.695Z,29.50
2018-02-16T19:11:43.139Z,22.63
2018-02-16T19:14:11.395Z,20.17
2018-02-16T19:16:39.913Z,30.97
2018-02-16T19:19:08.286Z,44.67
2018-02-16T19:21:36.649Z,27.13
2018-02-16T19:24:04.230Z,28.20
2018-02-16T19:26:31.779Z,23.03
2018-02-16T19:28:59.369Z,21.97
2018-02-16T19:31:27.839Z,30.30
2018-02-16T19:33:56.211Z,35.90
2018-02-16T19:36:24.555Z,21.57
2018-02-16T19:38:52.107Z,20.70
2018-02-16T19:41:20.625Z,28.53
2018-02-16T19:43:48.903Z,22.93
2018-02-16T19:46:17.307Z,26.00
2018-02-16T19:48:45.560Z,19.67
2018-02-16T19:51:13.146Z,23.90
2018-02-16T19:53:40.694Z,17.20
2018-02-16T19:56:09.087Z,24.23
2018-02-16T19:58:36.630Z,18.97
2018-02-16T20:01:05.019Z,27.83
2018-02-16T20:03:32.571Z,22.43
2018-02-16T20:06:00.118Z,22.77
2018-02-16T20:08:28.459Z,25.73
2018-02-16T20:10:56.010Z,19.80
2018-02-16T20:13:23.558Z,16.63
2018-02-16T20:15:51.178Z,26.97
2018-02-16T20:18:19.091Z,24.93
2018-02-16T20:20:47.542Z,17.93
2018-02-16T20:23:15.095Z,29.67
2018-02-16T20:25:42.682Z,19.70
2018-02-16T20:28:10.235Z,25.97
2018-02-16T20:30:38.769Z,20.07
2018-02-16T20:33:07.102Z,25.00
2018-02-16T20:35:34.650Z,23.40
2018-02-16T20:38:02.252Z,26.37
2018-02-16T20:40:29.826Z,24.43
2018-02-16T20:42:57.388Z,24.80
2018-02-16T20:45:24.947Z,32.63
2018-02-16T20:47:52.505Z,18.23
2018-02-16T20:50:21.018Z,28.37
2018-02-16T20:52:48.579Z,23.67
2018-02-16T20:55:16.127Z,24.80
2018-02-16T20:57:43.675Z,28.43
2018-02-16T21:00:11.230Z,23.93
2018-02-16T21:02:38.826Z,25.65
2018-02-16T21:05:06.431Z,26.87
2018-02-16T21:07:33.979Z,29.90
2018-02-16T21:10:01.538Z,30.40
2018-02-16T21:12:29.091Z,36.93
2018-02-16T21:14:56.647Z,23.90
2018-02-16T21:17:24.202Z,23.47
2018-02-16T21:19:51.747Z,32.20
2018-02-16T21:22:19.297Z,30.70
2018-02-16T21:24:47.543Z,29.93
2018-02-16T21:27:15.094Z,29.10
2018-02-16T21:29:42.650Z,23.67
2018-02-16T21:32:10.250Z,27.62
2018-02-16T21:34:38.614Z,25.17
2018-02-16T21:37:07.010Z,24.20
2018-02-16T21:39:34.562Z,21.87
2018-02-16T21:42:02.162Z,28.67
2018-02-16T21:44:29.718Z,31.67
2018-02-16T21:46:58.207Z,29.13
2018-02-16T21:49:25.758Z,30.93
2018-02-16T21:51:53.311Z,30.90
2018-02-16T21:54:20.901Z,34.93
2018-02-16T21:56:48.466Z,22.20
2018-02-16T21:59:16.766Z,33.87
2018-02-16T22:01:44.321Z,25.83
2018-02-16T22:04:11.918Z,31.47
2018-02-16T22:06:39.496Z,22.40
2018-02-16T22:09:07.042Z,24.73
2018-02-16T22:11:34.595Z,26.43
2018-02-16T22:14:02.149Z,39.73
2018-02-16T22:16:29.705Z,30.93
2018-02-16T22:18:57.258Z,28.93
2018-02-16T22:21:24.831Z,29.85
2018-02-16T22:23:52.395Z,35.97
2018-02-16T22:26:19.994Z,32.83
2018-02-16T22:28:47.545Z,27.17
2018-02-16T22:31:15.109Z,37.67
2018-02-16T22:33:42.710Z,37.92
2018-02-16T22:36:11.123Z,28.63
2018-02-16T22:38:38.682Z,41.17
2018-02-16T22:41:07.090Z,33.57
2018-02-16T22:43:34.645Z,47.95
2018-02-16T22:46:03.071Z,38.75
2018-02-16T22:48:30.624Z,30.90
2018-02-16T22:50:59.136Z,32.43
2018-02-16T22:53:27.448Z,24.92
2018-02-16T22:55:55.815Z,31.93
2018-02-16T22:58:24.290Z,32.47
2018-02-16T23:00:51.885Z,37.13
2018-02-16T23:03:19.443Z,31.20
2018-02-16T23:05:47.989Z,32.88
2018-02-16T23:08:16.261Z,38.45
2018-02-16T23:10:43.869Z,26.45
2018-02-16T23:13:12.218Z,42.92
2018-02-16T23:15:39.794Z,56.03
2018-02-16T23:18:07.855Z,34.13
2018-02-16T23:20:35.420Z,30.25
2018-02-16T23:23:03.926Z,38.92
2018-02-16T23:25:31.473Z,33.97
2018-02-16T23:27:59.926Z,36.20
2018-02-16T23:30:27.487Z,34.97
2018-02-16T23:32:55.078Z,41.73
2018-02-16T23:35:22.659Z,48.93
2018-02-16T23:37:50.250Z,35.83
2018-02-16T23:40:18.079Z,39.30
2018-02-16T23:42:46.496Z,39.70
2018-02-16T23:45:14.064Z,29.60
2018-02-16T23:47:41.630Z,38.95
2018-02-16T23:50:09.232Z,30.00
2018-02-16T23:52:36.791Z,32.70
2018-02-16T23:55:04.446Z,32.20
2018-02-16T23:57:32.011Z,38.57
2018-02-16T23:59:59.608Z,42.77
